createdAt,value
2022-11-06T00:00:40.698Z,5.88
2022-11-06T00:03:09.622Z,5.43
2022-11-06T00:05:59.210Z,6.03
2022-11-06T00:08:30.130Z,5.63
2022-11-06T00:10:58.792Z,5.30
2022-11-06T00:13:27.118Z,5.80
2022-11-06T00:15:56.848Z,6.03
2022-11-06T00:18:28.332Z,6.25
2022-11-06T00:20:56.732Z,5.45
2022-11-06T00:23:25.236Z,6.35
2022-11-06T00:25:56.729Z,6.28
2022-11-06T00:28:25.315Z,5.32
2022-11-06T00:31:03.098Z,5.10
2022-11-06T00:33:31.558Z,5.85
2022-11-06T00:36:00.000Z,6.22
2022-11-06T00:38:28.254Z,6.32
2022-11-06T00:40:56.798Z,5.93
2022-11-06T00:43:25.168Z,6.40
2022-11-06T00:45:53.371Z,5.63
2022-11-06T00:48:23.074Z,6.00
2022-11-06T00:50:51.447Z,6.28
2022-11-06T00:53:19.760Z,5.97
2022-11-06T00:55:48.106Z,5.85
2022-11-06T00:58:16.377Z,5.53
2022-11-06T01:00:44.628Z,5.70
2022-11-06T01:03:12.964Z,5.85
2022-11-06T01:05:42.703Z,6.25
2022-11-06T01:08:11.354Z,5.75
2022-11-06T01:10:39.962Z,5.85
2022-11-06T01:13:08.223Z,6.22
2022-11-06T01:15:37.761Z,5.85
2022-11-06T01:18:06.284Z,6.13
2022-11-06T01:20:34.576Z,6.25
2022-11-06T01:23:04.234Z,6.85
2022-11-06T01:25:32.545Z,6.05
2022-11-06T01:28:00.772Z,6.60
2022-11-06T01:30:29.011Z,6.45
2022-11-06T01:32:57.284Z,6.93
2022-11-06T01:35:25.746Z,7.10
2022-11-06T01:37:53.990Z,7.20
2022-11-06T01:40:23.628Z,7.18
2022-11-06T01:42:51.989Z,6.88
2022-11-06T01:45:36.627Z,6.78
2022-11-06T01:48:05.410Z,7.53
2022-11-06T01:50:34.521Z,7.18
2022-11-06T01:53:03.252Z,7.10
2022-11-06T01:55:37.064Z,7.25
2022-11-06T01:58:07.520Z,7.32
2022-11-06T02:00:36.072Z,7.53
2022-11-06T02:03:05.266Z,7.45
2022-11-06T02:05:33.788Z,6.93
2022-11-06T02:08:02.895Z,8.27
2022-11-06T02:10:33.096Z,6.78
2022-11-06T02:13:23.525Z,8.07
2022-11-06T02:15:59.611Z,7.45
2022-11-06T02:18:52.136Z,7.95
2022-11-06T02:21:51.360Z,7.40
2022-11-06T02:24:45.767Z,7.82
2022-11-06T02:27:17.253Z,7.22
2022-11-06T02:29:53.782Z,7.68
2022-11-06T02:32:28.071Z,7.05
2022-11-06T02:34:57.876Z,7.65
2022-11-06T02:37:30.934Z,7.03
2022-11-06T02:40:02.548Z,6.88
2022-11-06T02:42:35.887Z,7.75
2022-11-06T02:45:06.674Z,7.55
2022-11-06T02:47:35.877Z,7.15
2022-11-06T02:50:08.205Z,6.95
2022-11-06T02:52:41.135Z,7.47
2022-11-06T02:55:13.430Z,7.20
2022-11-06T02:57:50.722Z,7.55
2022-11-06T03:00:19.778Z,7.63
2022-11-06T03:02:52.531Z,7.07
2022-11-06T03:05:25.002Z,6.75
2022-11-06T03:07:58.227Z,7.20
2022-11-06T03:10:31.919Z,7.13
2022-11-06T03:13:06.869Z,7.45
2022-11-06T03:15:40.081Z,6.95
2022-11-06T03:18:15.011Z,6.75
2022-11-06T03:20:52.031Z,7.18
2022-11-06T03:23:24.320Z,6.75
2022-11-06T03:25:55.905Z,7.40
2022-11-06T03:28:30.714Z,7.65
2022-11-06T03:31:03.342Z,7.82
2022-11-06T03:33:35.491Z,6.80
2022-11-06T03:36:07.164Z,7.45
2022-11-06T03:38:42.217Z,6.90
2022-11-06T03:41:14.330Z,7.38
2022-11-06T03:43:46.585Z,6.68
2022-11-06T03:46:19.452Z,6.93
2022-11-06T03:48:51.624Z,7.55
2022-11-06T03:51:23.268Z,7.10
2022-11-06T03:53:53.483Z,7.40
2022-11-06T03:56:26.516Z,7.13
2022-11-06T03:58:57.780Z,7.25
2022-11-06T04:01:31.046Z,7.18
2022-11-06T04:04:02.775Z,7.68
2022-11-06T04:06:37.445Z,7.00
2022-11-06T04:09:26.283Z,6.47
2022-11-06T04:12:12.480Z,6.70
2022-11-06T04:14:46.449Z,6.88
2022-11-06T04:17:16.261Z,6.45
2022-11-06T04:19:49.868Z,7.18
2022-11-06T04:22:29.569Z,6.10
2022-11-06T04:25:28.802Z,6.35
2022-11-06T04:28:08.549Z,5.63
2022-11-06T04:30:45.169Z,5.18
2022-11-06T04:33:19.276Z,4.20
2022-11-06T04:35:59.949Z,0.35
2022-11-06T04:38:36.714Z,0.40
2022-11-06T04:41:13.902Z,0.50
2022-11-06T04:43:47.332Z,0.20
2022-11-06T04:46:22.117Z,0.25
2022-11-06T04:48:51.182Z,0.28
2022-11-06T04:51:23.686Z,0.38
2022-11-06T04:53:53.326Z,0.17
2022-11-06T04:56:32.870Z,1.35
2022-11-06T04:59:02.899Z,0.93
2022-11-06T05:01:32.488Z,0.60
2022-11-06T05:04:01.048Z,0.38
2022-11-06T05:06:30.294Z,0.95
2022-11-06T05:08:59.077Z,0.77
2022-11-06T05:11:27.168Z,0.03
2022-11-06T05:13:55.229Z,1.00
2022-11-06T05:16:23.243Z,0.65
2022-11-06T05:18:52.700Z,0.68
2022-11-06T05:21:37.952Z,0.10
2022-11-06T05:24:06.828Z,1.55
2022-11-06T05:26:34.935Z,0.75
2022-11-06T05:29:03.175Z,0.63
2022-11-06T05:31:31.163Z,0.17
2022-11-06T05:34:01.280Z,0.30
2022-11-06T05:36:29.360Z,1.35
2022-11-06T05:38:57.367Z,0.68
2022-11-06T05:41:25.493Z,0.68
2022-11-06T05:43:53.672Z,1.17
2022-11-06T05:46:47.073Z,0.47
2022-11-06T05:49:11.582Z,0.40
2022-11-06T05:51:39.702Z,0.20
2022-11-06T05:54:07.707Z,0.70
2022-11-06T05:56:35.752Z,0.65
2022-11-06T05:59:03.814Z,0.30
2022-11-06T06:01:31.991Z,0.40
2022-11-06T06:04:00.220Z,0.05
2022-11-06T06:06:29.855Z,0.08
2022-11-06T06:08:57.889Z,0.10
2022-11-06T06:11:27.036Z,0.50
2022-11-06T06:13:55.149Z,0.10
2022-11-06T06:16:23.171Z,0.20
2022-11-06T06:18:51.974Z,0.13
2022-11-06T06:21:20.114Z,0.25
2022-11-06T06:23:49.522Z,0.57
2022-11-06T06:26:17.609Z,0.10
2022-11-06T06:28:45.644Z,0.35
2022-11-06T06:31:13.745Z,0.55
2022-11-06T06:33:41.809Z,0.40
2022-11-06T06:36:10.710Z,0.50
2022-11-06T06:38:38.777Z,0.20
2022-11-06T06:41:09.556Z,0.50
2022-11-06T06:43:37.656Z,0.43
2022-11-06T06:46:07.704Z,0.70
2022-11-06T06:48:35.937Z,0.40
2022-11-06T06:51:04.895Z,0.38
2022-11-06T06:53:33.151Z,0.32
2022-11-06T06:56:01.827Z,0.10
2022-11-06T06:58:31.767Z,0.13
2022-11-06T07:01:02.304Z,0.35
2022-11-06T07:03:30.952Z,1.50
2022-11-06T07:05:59.712Z,0.65
2022-11-06T07:08:28.092Z,0.50
2022-11-06T07:11:00.080Z,0.68
2022-11-06T07:13:32.810Z,0.20
2022-11-06T07:16:05.801Z,0.60
2022-11-06T07:18:34.012Z,0.38
2022-11-06T07:21:02.057Z,0.10
2022-11-06T07:23:30.103Z,0.20
2022-11-06T07:25:58.280Z,0.22
2022-11-06T07:28:26.343Z,0.20
2022-11-06T07:30:58.498Z,0.30
2022-11-06T07:33:28.176Z,0.20
2022-11-06T07:35:56.258Z,0.57
2022-11-06T07:38:24.370Z,0.20
2022-11-06T07:40:52.372Z,0.20
2022-11-06T07:43:20.475Z,0.40
2022-11-06T07:45:48.537Z,0.30
2022-11-06T07:48:16.773Z,1.02
2022-11-06T07:50:46.328Z,0.20
2022-11-06T07:53:14.662Z,0.47
2022-11-06T07:55:49.645Z,0.47
2022-11-06T07:58:17.851Z,0.28
2022-11-06T08:00:48.759Z,0.28
2022-11-06T08:03:17.616Z,0.70
2022-11-06T08:05:47.088Z,0.30
2022-11-06T08:08:15.533Z,0.25
2022-11-06T08:10:44.621Z,0.68
2022-11-06T08:13:13.241Z,0.52
2022-11-06T08:15:42.846Z,0.30
2022-11-06T08:18:12.853Z,0.50
2022-11-06T08:20:41.550Z,0.10
2022-11-06T08:23:13.360Z,0.85
2022-11-06T08:25:41.992Z,0.10
2022-11-06T08:28:11.300Z,0.32
2022-11-06T08:30:39.548Z,0.13
2022-11-06T08:33:09.277Z,0.60
2022-11-06T08:35:37.685Z,0.30
2022-11-06T08:38:05.782Z,0.95
2022-11-06T08:40:37.284Z,0.00
2022-11-06T08:43:07.216Z,0.40
2022-11-06T08:45:38.288Z,0.45
2022-11-06T08:48:07.465Z,0.65
2022-11-06T08:50:40.277Z,1.08
2022-11-06T08:53:09.191Z,0.30
2022-11-06T08:55:50.578Z,4.05
2022-11-06T08:58:18.656Z,3.90
2022-11-06T09:00:46.885Z,3.88
2022-11-06T09:03:18.044Z,4.53
2022-11-06T09:05:46.865Z,3.80
2022-11-06T09:08:16.195Z,3.35
2022-11-06T09:10:45.912Z,3.53
2022-11-06T09:13:14.414Z,3.70
2022-11-06T09:15:42.915Z,4.20
2022-11-06T09:18:12.241Z,3.55
2022-11-06T09:20:42.780Z,3.88
2022-11-06T09:23:15.681Z,3.63
2022-11-06T09:25:45.453Z,3.45
2022-11-06T09:28:13.566Z,3.40
2022-11-06T09:30:41.592Z,3.25
2022-11-06T09:33:13.457Z,3.50
2022-11-06T09:35:42.580Z,3.47
2022-11-06T09:38:15.512Z,3.40
2022-11-06T09:40:50.791Z,3.10
2022-11-06T09:44:03.577Z,3.60
2022-11-06T09:46:25.743Z,3.08
2022-11-06T09:49:01.258Z,3.03
2022-11-06T09:51:35.720Z,3.38
2022-11-06T09:54:11.923Z,2.58
2022-11-06T09:56:43.234Z,2.45
2022-11-06T09:59:15.791Z,2.80
2022-11-06T10:01:47.282Z,3.47
2022-11-06T10:04:40.853Z,3.00
2022-11-06T10:07:24.268Z,2.70
2022-11-06T10:10:01.799Z,2.83
2022-11-06T10:12:41.109Z,3.25
2022-11-06T10:15:21.707Z,2.53
2022-11-06T10:18:01.476Z,3.05
2022-11-06T10:20:33.160Z,2.30
2022-11-06T10:23:06.916Z,2.58
2022-11-06T10:25:47.808Z,2.60
2022-11-06T10:28:29.857Z,2.80
2022-11-06T10:31:08.987Z,2.80
2022-11-06T10:33:50.932Z,2.13
2022-11-06T10:36:23.656Z,2.42
2022-11-06T10:38:53.918Z,2.60
2022-11-06T10:41:26.065Z,2.42
2022-11-06T10:44:00.748Z,2.40
2022-11-06T10:46:35.842Z,2.85
2022-11-06T10:49:07.758Z,2.80
2022-11-06T10:52:09.665Z,2.65
2022-11-06T10:54:51.420Z,2.17
2022-11-06T10:57:32.699Z,1.98
2022-11-06T11:00:02.457Z,1.98
2022-11-06T11:02:34.801Z,2.30
2022-11-06T11:05:03.207Z,2.50
2022-11-06T11:07:35.682Z,2.17
2022-11-06T11:10:28.195Z,2.40
2022-11-06T11:12:58.090Z,2.10
2022-11-06T11:15:29.219Z,2.25
2022-11-06T11:18:31.041Z,2.28
2022-11-06T11:21:16.530Z,2.53
2022-11-06T11:23:45.219Z,2.53
2022-11-06T11:26:24.201Z,2.38
2022-11-06T11:28:55.310Z,2.10
2022-11-06T11:31:30.960Z,2.35
2022-11-06T11:34:01.077Z,2.08
2022-11-06T11:36:49.058Z,1.95
2022-11-06T11:39:19.422Z,2.17
2022-11-06T11:41:47.757Z,2.63
2022-11-06T11:44:17.699Z,2.15
2022-11-06T11:46:49.983Z,2.58
2022-11-06T11:49:30.278Z,4.60
2022-11-06T11:52:00.073Z,2.80
2022-11-06T11:54:32.265Z,2.50
2022-11-06T11:57:06.688Z,2.67
2022-11-06T11:59:42.786Z,2.10
2022-11-06T12:02:25.248Z,2.38
2022-11-06T12:04:59.133Z,2.08
2022-11-06T12:07:30.387Z,2.95
2022-11-06T12:09:59.928Z,2.50
2022-11-06T12:12:32.113Z,2.30
2022-11-06T12:15:19.314Z,3.20
2022-11-06T12:17:54.281Z,2.63
2022-11-06T12:20:27.158Z,2.38
2022-11-06T12:22:57.414Z,2.20
2022-11-06T12:25:28.856Z,2.35
2022-11-06T12:28:01.022Z,2.10
2022-11-06T12:30:33.379Z,2.75
2022-11-06T12:33:11.587Z,2.40
2022-11-06T12:35:44.044Z,2.53
2022-11-06T12:38:20.887Z,2.10
2022-11-06T12:40:52.473Z,2.08
2022-11-06T12:43:27.766Z,2.10
2022-11-06T12:46:08.117Z,2.67
2022-11-06T12:48:50.397Z,2.40
2022-11-06T12:51:28.846Z,2.17
2022-11-06T12:54:09.203Z,2.15
2022-11-06T12:56:48.288Z,1.98
2022-11-06T12:59:30.491Z,2.22
2022-11-06T13:02:12.808Z,2.10
2022-11-06T13:04:53.288Z,2.20
2022-11-06T13:07:40.146Z,2.03
2022-11-06T13:10:25.358Z,1.95
2022-11-06T13:13:12.740Z,2.17
2022-11-06T13:15:53.900Z,1.70
2022-11-06T13:18:26.362Z,1.80
2022-11-06T13:21:02.353Z,2.30
2022-11-06T13:23:36.434Z,2.20
2022-11-06T13:26:10.892Z,1.88
2022-11-06T13:28:42.574Z,1.80
2022-11-06T13:31:15.238Z,2.00
2022-11-06T13:33:48.469Z,2.15
2022-11-06T13:36:19.822Z,1.90
2022-11-06T13:38:52.669Z,1.92
2022-11-06T13:41:23.445Z,2.10
2022-11-06T13:43:56.174Z,1.70
2022-11-06T13:46:32.844Z,1.92
2022-11-06T13:49:14.243Z,1.73
2022-11-06T13:51:51.839Z,1.60
2022-11-06T13:54:29.528Z,2.17
2022-11-06T13:57:40.439Z,1.77
2022-11-06T14:00:22.226Z,1.80
2022-11-06T14:03:26.313Z,2.00
2022-11-06T14:06:01.791Z,1.83
2022-11-06T14:08:34.651Z,1.85
2022-11-06T14:11:06.850Z,1.65
2022-11-06T14:13:37.009Z,1.77
2022-11-06T14:16:28.606Z,1.77
2022-11-06T14:18:59.085Z,2.13
2022-11-06T14:21:44.092Z,2.60
2022-11-06T14:24:28.090Z,2.35
2022-11-06T14:26:56.839Z,2.20
2022-11-06T14:29:57.947Z,1.90
2022-11-06T14:32:46.248Z,2.60
2022-11-06T14:35:51.950Z,3.00
2022-11-06T14:38:35.970Z,5.75
2022-11-06T14:41:48.077Z,3.65
2022-11-06T14:44:36.880Z,2.72
2022-11-06T14:47:08.619Z,2.65
2022-11-06T14:49:43.944Z,2.50
2022-11-06T14:52:15.124Z,2.40
2022-11-06T14:54:54.439Z,2.47
2022-11-06T14:57:41.262Z,4.95
2022-11-06T15:00:15.522Z,4.28
2022-11-06T15:02:45.003Z,2.80
2022-11-06T15:05:19.423Z,3.25
2022-11-06T15:08:05.911Z,3.20
2022-11-06T15:10:55.029Z,3.67
2022-11-06T15:13:31.209Z,2.95
2022-11-06T15:16:06.933Z,4.03
2022-11-06T15:18:37.586Z,3.83
2022-11-06T15:21:10.643Z,3.35
2022-11-06T15:23:43.763Z,2.72
2022-11-06T15:26:23.991Z,3.08
2022-11-06T15:29:10.368Z,4.75
2022-11-06T15:31:40.267Z,3.25
2022-11-06T15:34:16.323Z,2.67
2022-11-06T15:36:50.852Z,2.38
2022-11-06T15:39:34.266Z,2.72
2022-11-06T15:42:02.791Z,3.65
2022-11-06T15:44:32.429Z,3.17
2022-11-06T15:47:00.802Z,2.88
2022-11-06T15:49:29.343Z,2.42
2022-11-06T15:51:59.149Z,2.92
2022-11-06T15:54:38.481Z,2.53
2022-11-06T15:57:14.700Z,2.53
2022-11-06T15:59:44.588Z,2.70
2022-11-06T16:02:19.708Z,2.60
2022-11-06T16:04:48.797Z,3.83
2022-11-06T16:07:19.276Z,4.88
2022-11-06T16:09:48.603Z,4.75
2022-11-06T16:12:19.481Z,3.17
2022-11-06T16:14:49.239Z,3.30
2022-11-06T16:17:23.403Z,3.55
2022-11-06T16:19:54.441Z,2.40
2022-11-06T16:22:30.167Z,2.75
2022-11-06T16:25:00.974Z,2.80
2022-11-06T16:27:33.983Z,2.60
2022-11-06T16:30:04.054Z,2.65
2022-11-06T16:32:37.943Z,2.50
2022-11-06T16:35:33.185Z,2.47
2022-11-06T16:38:45.312Z,2.80
2022-11-06T16:41:35.369Z,2.63
2022-11-06T16:44:31.297Z,2.60
2022-11-06T16:47:15.851Z,3.17
2022-11-06T16:49:50.221Z,3.15
2022-11-06T16:52:25.867Z,4.25
2022-11-06T16:54:56.229Z,3.30
2022-11-06T16:57:27.177Z,2.90
2022-11-06T16:59:58.315Z,3.03
2022-11-06T17:02:30.608Z,2.88
2022-11-06T17:05:15.050Z,2.83
2022-11-06T17:07:44.102Z,2.60
2022-11-06T17:10:42.728Z,2.63
2022-11-06T17:13:15.912Z,2.63
2022-11-06T17:15:45.901Z,2.38
2022-11-06T17:18:19.348Z,3.03
2022-11-06T17:20:51.613Z,2.63
2022-11-06T17:23:19.773Z,2.42
2022-11-06T17:25:48.747Z,2.55
2022-11-06T17:28:18.920Z,2.67
2022-11-06T17:30:48.289Z,6.97
2022-11-06T17:33:17.955Z,3.58
2022-11-06T17:35:47.874Z,3.13
2022-11-06T17:38:16.664Z,3.13
2022-11-06T17:40:45.786Z,7.13
2022-11-06T17:43:14.080Z,3.30
2022-11-06T17:45:47.770Z,2.80
2022-11-06T17:48:17.646Z,2.42
2022-11-06T17:51:02.915Z,2.03
2022-11-06T17:53:30.986Z,2.05
2022-11-06T17:55:58.983Z,2.10
2022-11-06T17:58:26.981Z,2.42
2022-11-06T18:00:56.852Z,2.80
2022-11-06T18:03:35.315Z,3.20
2022-11-06T18:06:04.595Z,2.95
2022-11-06T18:08:32.694Z,2.35
2022-11-06T18:11:00.819Z,2.40
2022-11-06T18:13:28.832Z,2.83
2022-11-06T18:15:57.050Z,3.80
2022-11-06T18:18:25.086Z,3.95
2022-11-06T18:20:54.463Z,2.90
2022-11-06T18:23:22.604Z,2.80
2022-11-06T18:25:57.739Z,3.25
2022-11-06T18:28:26.732Z,3.13
2022-11-06T18:30:55.065Z,3.15
2022-11-06T18:33:23.044Z,10.23
2022-11-06T18:35:52.177Z,6.30
2022-11-06T18:38:21.603Z,4.82
2022-11-06T18:40:51.743Z,4.05
2022-11-06T18:43:20.019Z,5.10
2022-11-06T18:45:48.039Z,5.45
2022-11-06T18:48:21.035Z,6.88
2022-11-06T18:50:49.486Z,4.90
2022-11-06T18:53:17.524Z,4.50
2022-11-06T18:55:47.169Z,5.55
2022-11-06T18:58:15.815Z,3.97
2022-11-06T19:00:44.121Z,4.63
2022-11-06T19:03:12.945Z,4.40
2022-11-06T19:05:47.516Z,5.43
2022-11-06T19:08:16.440Z,5.18
2022-11-06T19:10:46.081Z,4.20
2022-11-06T19:13:14.193Z,4.68
2022-11-06T19:15:42.933Z,3.88
2022-11-06T19:18:11.388Z,3.70
2022-11-06T19:20:40.910Z,3.70
2022-11-06T19:23:09.208Z,4.75
2022-11-06T19:25:40.576Z,4.47
2022-11-06T19:28:10.737Z,3.17
2022-11-06T19:30:38.904Z,5.10
2022-11-06T19:33:06.933Z,2.97
2022-11-06T19:35:34.981Z,3.80
2022-11-06T19:38:03.076Z,4.85
2022-11-06T19:40:31.058Z,3.65
2022-11-06T19:42:59.682Z,5.15
2022-11-06T19:45:29.357Z,4.88
2022-11-06T19:47:57.398Z,4.70
2022-11-06T19:50:53.648Z,5.45
2022-11-06T19:53:17.660Z,3.60
2022-11-06T19:55:45.685Z,2.97
2022-11-06T19:58:13.852Z,3.40
2022-11-06T20:00:43.377Z,2.95
2022-11-06T20:03:13.863Z,3.13
2022-11-06T20:05:42.879Z,3.13
2022-11-06T20:08:11.280Z,4.72
2022-11-06T20:10:41.203Z,4.10
2022-11-06T20:13:09.555Z,2.78
2022-11-06T20:15:37.605Z,4.78
2022-11-06T20:18:07.101Z,3.33
2022-11-06T20:20:36.537Z,2.63
2022-11-06T20:23:04.881Z,3.00
2022-11-06T20:25:33.064Z,3.80
2022-11-06T20:28:01.169Z,2.70
2022-11-06T20:30:29.201Z,3.25
2022-11-06T20:32:57.242Z,3.15
2022-11-06T20:35:26.971Z,3.83
2022-11-06T20:37:55.021Z,3.60
2022-11-06T20:40:23.119Z,4.22
2022-11-06T20:42:51.309Z,3.40
2022-11-06T20:45:19.388Z,3.30
2022-11-06T20:47:47.409Z,3.55
2022-11-06T20:50:15.628Z,4.20
2022-11-06T20:52:45.469Z,3.75
2022-11-06T20:55:13.543Z,3.95
2022-11-06T20:57:41.525Z,4.18
2022-11-06T21:00:10.713Z,3.58
2022-11-06T21:02:38.836Z,4.30
2022-11-06T21:05:07.345Z,3.78
2022-11-06T21:07:35.938Z,3.85
2022-11-06T21:10:06.276Z,3.58
2022-11-06T21:12:34.433Z,4.30
2022-11-06T21:15:02.470Z,3.90
2022-11-06T21:17:30.545Z,4.20
2022-11-06T21:19:58.665Z,3.88
2022-11-06T21:22:26.713Z,3.92
2022-11-06T21:24:54.720Z,3.97
2022-11-06T21:27:24.177Z,4.15
2022-11-06T21:29:52.227Z,4.53
2022-11-06T21:32:20.253Z,4.45
2022-11-06T21:34:48.257Z,4.70
2022-11-06T21:37:16.305Z,4.82
2022-11-06T21:39:44.411Z,4.72
2022-11-06T21:42:12.636Z,4.78
2022-11-06T21:44:42.177Z,4.60
2022-11-06T21:47:10.241Z,4.80
2022-11-06T21:49:38.247Z,4.70
2022-11-06T21:52:22.838Z,4.57
2022-11-06T21:55:10.290Z,4.53
2022-11-06T21:57:38.309Z,4.75
2022-11-06T22:00:12.921Z,4.60
2022-11-06T22:02:43.165Z,5.00
2022-11-06T22:05:11.484Z,4.72
2022-11-06T22:07:39.506Z,4.90
2022-11-06T22:10:08.745Z,4.60
2022-11-06T22:12:36.938Z,5.10
2022-11-06T22:15:05.620Z,4.45
2022-11-06T22:17:35.020Z,4.55
2022-11-06T22:20:03.343Z,4.80
2022-11-06T22:22:31.373Z,3.80
2022-11-06T22:24:59.591Z,4.68
2022-11-06T22:27:27.608Z,4.60
2022-11-06T22:29:55.665Z,4.20
2022-11-06T22:32:23.841Z,4.43
2022-11-06T22:34:53.260Z,4.47
2022-11-06T22:37:21.475Z,4.40
2022-11-06T22:39:49.957Z,4.75
2022-11-06T22:42:18.225Z,4.50
2022-11-06T22:44:46.576Z,4.80
2022-11-06T22:47:14.948Z,4.70
2022-11-06T22:49:43.195Z,4.68
2022-11-06T22:52:12.873Z,4.82
2022-11-06T22:54:41.222Z,4.88
2022-11-06T22:57:09.524Z,4.68
2022-11-06T22:59:37.831Z,4.65
2022-11-06T23:02:06.157Z,5.25
2022-11-06T23:04:35.779Z,4.45
2022-11-06T23:07:04.048Z,4.72
2022-11-06T23:09:33.735Z,4.43
2022-11-06T23:12:02.067Z,4.97
2022-11-06T23:14:31.269Z,4.18
2022-11-06T23:17:00.831Z,4.47
2022-11-06T23:19:31.194Z,4.80
2022-11-06T23:22:17.316Z,5.00
2022-11-06T23:24:47.225Z,4.40
2022-11-06T23:27:15.758Z,4.72
2022-11-06T23:29:45.240Z,4.47
2022-11-06T23:32:13.865Z,4.78
2022-11-06T23:34:42.159Z,5.20
2022-11-06T23:37:10.655Z,5.00
2022-11-06T23:39:38.950Z,4.80
2022-11-06T23:42:08.578Z,5.05
2022-11-06T23:44:54.090Z,5.10
2022-11-06T23:47:22.323Z,5.18
2022-11-06T23:49:50.643Z,5.00
2022-11-06T23:52:19.006Z,4.90
2022-11-06T23:54:47.364Z,4.38
2022-11-06T23:57:17.064Z,5.10
2022-11-06T23:59:45.389Z,4.93
